Sulphur Springs, OH (44881)

4:53 AM EST en Diciembre 08, 2016 (GMT -0500)
Brandywine Creek | | Change Station

Alt 997 ft 40.86 °N, 82.96 °W | Updated 17 seconds ago

Nublado
Nublado
25.1 ° F
Sensación térmica 20 ° F
N
4.0
Viento Variable Viento desde Oeste

Hoy
Alta -- | Baja -- ° F
--% Posibilidad de precipitaciones
Ayer
Alta -- | Baja -- ° F
Precip. -- pul
Presión 30.09 pul
Visibilidad 10.0 Millas
Nubes Muy nublado 1800 ft
Nublado 11000 ft
Vientos helados 20 ° F
Punto de rocío 23 ° F
Humedad 93%
Precipitaciones 0.00 pul
Espesor de la nieve No disponible.
7:43 AM 5:03 PM
Cuarto creciente, 61% visible
METAR KMFD 080852Z AUTO 26006KT 10SM BKN018 OVC110 M03/M07 A3005 RMK AO2 SLP188 T10281067 58001
Presión 30.09 pul
Visibilidad 10.0 Millas
Nubes Muy nublado 1800 ft
Nublado 11000 ft
Vientos helados 20 ° F
Punto de rocío 23 ° F
Humedad 93%
Precipitaciones 0.00 pul
Espesor de la nieve No disponible.
7:43 AM 5:03 PM
Cuarto creciente, 61% visible
METAR KMFD 080852Z AUTO 26006KT 10SM BKN018 OVC110 M03/M07 A3005 RMK AO2 SLP188 T10281067 58001

10-Day Weather Forecast

Almanac

Astronomía

Dec. 08, 2016 Salida Puesta
Hora real
Crepúsculo civil
Crepúsculo náutico
Crepúsculo astronómico
Luna
Horas de luz
Horas de luz
Tomorrow will be .
, % of the Moon is Illuminated

Extremos de hoy

Máximos del estado Bajos del estado

Community

WunderPhotos

Upload Photos

1,956,259 ¡fotos cargadas!

WunderBlog® & News

Nearby

Calidad del aire

  Calidad del aire Índice AQ Contaminante
Not available.

Grosos de nieve

Estación Profundido Altura

Actividad de terremotos

Ciudad Distance Mag. Tiempo y dato
Magnitud mínima muestra es 2,5.

Temperaturas de aguas costeras

Lugar Temperatura

Stations

Estaciones meteorológicas cercanas

Ubicación de la estación Temp. Vientos helados Punto de rocío Humedad Viento Precip. Alt Actualizado Tipo
                   

Watches & Warnings

There are currently no watches in effect.